createdAt,value
2017-07-06T00:00:23.002Z,0
2017-07-06T00:01:03.940Z,0
2017-07-06T00:01:44.820Z,0
2017-07-06T00:02:25.772Z,0
2017-07-06T00:04:45.091Z,0
2017-07-06T00:06:59.200Z,0
2017-07-06T00:07:40.119Z,0
2017-07-06T00:08:21.000Z,0
2017-07-06T00:09:01.922Z,0
2017-07-06T00:09:42.818Z,0
2017-07-06T00:11:57.983Z,0
2017-07-06T00:12:38.875Z,0
2017-07-06T00:13:19.828Z,0
2017-07-06T00:14:00.768Z,0
2017-07-06T00:14:41.697Z,0
2017-07-06T00:15:22.622Z,0
2017-07-06T00:16:03.567Z,0
2017-07-06T00:16:44.547Z,0
2017-07-06T00:17:25.483Z,0
2017-07-06T00:18:06.422Z,0
2017-07-06T00:18:47.314Z,0
2017-07-06T00:19:28.248Z,0
2017-07-06T00:20:09.132Z,0
2017-07-06T00:20:50.019Z,0
2017-07-06T00:21:30.923Z,0
2017-07-06T00:22:11.827Z,0
2017-07-06T00:22:52.748Z,0
2017-07-06T00:23:33.660Z,0
2017-07-06T00:25:32.547Z,0
2017-07-06T00:26:13.496Z,0
2017-07-06T00:26:54.392Z,0
2017-07-06T00:27:35.272Z,0
2017-07-06T00:28:16.197Z,0
2017-07-06T00:28:57.171Z,0
2017-07-06T00:29:38.076Z,0
2017-07-06T00:30:19.043Z,0
2017-07-06T00:30:59.991Z,0
2017-07-06T00:31:40.939Z,0
2017-07-06T00:32:21.905Z,0
2017-07-06T00:33:02.803Z,0
2017-07-06T00:33:43.717Z,0
2017-07-06T00:34:24.636Z,0
2017-07-06T00:35:05.613Z,0
2017-07-06T00:35:46.534Z,0
2017-07-06T00:36:27.444Z,0
2017-07-06T00:37:08.362Z,0
2017-07-06T00:37:49.295Z,0
2017-07-06T00:38:30.235Z,0
2017-07-06T00:39:11.135Z,0
2017-07-06T00:39:52.078Z,0
2017-07-06T00:40:32.963Z,0
2017-07-06T00:41:13.886Z,0
2017-07-06T00:41:54.823Z,0
2017-07-06T00:42:35.748Z,0
2017-07-06T00:43:16.707Z,0
2017-07-06T00:43:57.652Z,0
2017-07-06T00:44:38.538Z,0
2017-07-06T00:45:19.499Z,0
2017-07-06T00:46:00.454Z,0
2017-07-06T00:46:41.359Z,0
2017-07-06T00:47:22.235Z,0
2017-07-06T00:48:03.122Z,0
2017-07-06T00:48:44.009Z,0
2017-07-06T00:49:24.898Z,0
2017-07-06T00:50:05.784Z,0
2017-07-06T00:50:46.686Z,0
2017-07-06T00:51:27.570Z,0
2017-07-06T00:52:08.461Z,0
2017-07-06T00:52:49.359Z,0
2017-07-06T00:53:30.261Z,0
2017-07-06T00:54:11.144Z,0
2017-07-06T00:54:52.036Z,0
2017-07-06T00:55:32.918Z,0
2017-07-06T00:56:13.806Z,0
2017-07-06T00:56:54.697Z,0
2017-07-06T00:57:35.578Z,0
2017-07-06T00:58:16.461Z,0
2017-07-06T00:58:57.360Z,0
2017-07-06T00:59:38.250Z,0
2017-07-06T01:00:19.159Z,0
2017-07-06T01:01:00.044Z,0
2017-07-06T01:01:40.942Z,0
2017-07-06T01:02:21.839Z,0
2017-07-06T01:03:02.726Z,0
2017-07-06T01:03:43.612Z,0
2017-07-06T01:04:24.493Z,0
2017-07-06T01:05:05.380Z,0
2017-07-06T01:05:46.268Z,0
2017-07-06T01:06:27.164Z,0
2017-07-06T01:07:08.052Z,0
2017-07-06T01:07:48.934Z,0
2017-07-06T01:08:29.835Z,0
2017-07-06T01:09:10.732Z,0
2017-07-06T01:09:51.627Z,0
2017-07-06T01:10:32.528Z,0
2017-07-06T01:11:13.408Z,0
2017-07-06T01:11:54.317Z,0
2017-07-06T01:12:35.196Z,0
2017-07-06T01:13:16.084Z,0
2017-07-06T01:13:56.978Z,0
2017-07-06T01:14:37.863Z,0
2017-07-06T01:15:18.755Z,0
2017-07-06T01:15:59.643Z,0
2017-07-06T01:16:40.528Z,0
2017-07-06T01:17:21.430Z,0
2017-07-06T01:18:02.319Z,0
2017-07-06T01:18:43.215Z,0
2017-07-06T01:19:24.097Z,0
2017-07-06T01:20:04.985Z,0
2017-07-06T01:20:45.880Z,0
2017-07-06T01:21:26.780Z,0
2017-07-06T01:22:07.672Z,0
2017-07-06T01:22:48.563Z,0
2017-07-06T01:23:29.463Z,0
2017-07-06T01:24:10.357Z,0
2017-07-06T01:24:51.252Z,0
2017-07-06T01:25:32.140Z,0
2017-07-06T01:26:13.033Z,0
2017-07-06T01:26:53.930Z,0
2017-07-06T01:27:34.817Z,0
2017-07-06T01:28:15.709Z,0
2017-07-06T01:28:56.610Z,0
2017-07-06T01:29:37.490Z,0
2017-07-06T01:30:18.392Z,0
2017-07-06T01:30:59.281Z,0
2017-07-06T01:31:40.225Z,0
2017-07-06T01:32:21.058Z,0
2017-07-06T01:33:01.953Z,0
2017-07-06T01:33:42.852Z,0
2017-07-06T01:34:23.724Z,0
2017-07-06T01:35:04.614Z,0
2017-07-06T01:35:45.503Z,0
2017-07-06T01:36:26.389Z,0
2017-07-06T01:37:07.278Z,0
2017-07-06T01:37:48.172Z,0
2017-07-06T01:38:29.066Z,0
2017-07-06T01:39:09.959Z,0
2017-07-06T01:39:50.861Z,0
2017-07-06T01:40:31.742Z,0
2017-07-06T01:41:12.631Z,0
2017-07-06T01:41:53.521Z,0
2017-07-06T01:42:34.405Z,0
2017-07-06T01:43:15.286Z,0
2017-07-06T01:43:56.175Z,0
2017-07-06T01:44:37.076Z,0
2017-07-06T01:45:17.967Z,0
2017-07-06T01:45:58.849Z,0
2017-07-06T01:46:39.744Z,0
2017-07-06T01:47:20.661Z,0
2017-07-06T01:48:01.566Z,0
2017-07-06T01:48:42.443Z,0
2017-07-06T01:49:23.337Z,0
2017-07-06T01:50:04.225Z,0
2017-07-06T01:50:45.119Z,0
2017-07-06T01:51:26.013Z,0
2017-07-06T01:52:06.907Z,0
2017-07-06T01:52:47.811Z,0
2017-07-06T01:53:28.733Z,0
2017-07-06T01:54:09.628Z,0
2017-07-06T01:54:50.536Z,0
2017-07-06T01:55:31.422Z,0
2017-07-06T01:56:12.319Z,0
2017-07-06T01:56:53.194Z,0
2017-07-06T01:57:34.077Z,0
2017-07-06T01:58:14.957Z,0
2017-07-06T01:58:55.824Z,0
2017-07-06T01:59:36.713Z,0
2017-07-06T02:00:17.605Z,0
2017-07-06T02:00:58.495Z,0
2017-07-06T02:01:39.387Z,0
2017-07-06T02:02:20.277Z,0
2017-07-06T02:03:01.152Z,0
2017-07-06T02:03:42.047Z,0
2017-07-06T02:04:22.948Z,0
2017-07-06T02:05:03.819Z,0
2017-07-06T02:05:44.703Z,0
2017-07-06T02:06:25.592Z,0
2017-07-06T02:07:06.476Z,0
2017-07-06T02:07:47.369Z,0
2017-07-06T02:08:28.268Z,0
2017-07-06T02:09:09.168Z,0
2017-07-06T02:09:50.065Z,0
2017-07-06T02:10:30.957Z,0
2017-07-06T02:11:11.855Z,0
2017-07-06T02:11:52.772Z,0
2017-07-06T02:12:33.659Z,0
2017-07-06T02:13:14.543Z,0
2017-07-06T02:13:55.444Z,0
2017-07-06T02:14:36.330Z,0
2017-07-06T02:15:17.211Z,0
2017-07-06T02:15:58.099Z,0
2017-07-06T02:16:39.009Z,0
2017-07-06T02:17:19.874Z,0
2017-07-06T02:18:00.764Z,0
2017-07-06T02:18:41.654Z,0
2017-07-06T02:19:22.534Z,0
2017-07-06T02:20:03.407Z,0
2017-07-06T02:20:44.305Z,0
2017-07-06T02:21:25.197Z,0
2017-07-06T02:22:06.074Z,0
2017-07-06T02:22:46.962Z,0
2017-07-06T02:23:27.847Z,0
2017-07-06T02:24:08.741Z,0
2017-07-06T02:24:49.642Z,0
2017-07-06T02:25:30.536Z,0
2017-07-06T02:26:11.424Z,0
2017-07-06T02:26:52.309Z,0
2017-07-06T02:27:33.192Z,0
2017-07-06T02:28:14.099Z,0
2017-07-06T02:28:54.991Z,0
2017-07-06T02:29:35.900Z,0
2017-07-06T02:30:16.839Z,0
2017-07-06T02:30:57.716Z,0
2017-07-06T02:31:38.616Z,0
2017-07-06T02:32:19.497Z,0
2017-07-06T02:33:00.404Z,0
2017-07-06T02:33:41.289Z,0
2017-07-06T02:34:22.173Z,0
2017-07-06T02:35:03.059Z,0
2017-07-06T02:35:43.944Z,0
2017-07-06T02:36:24.834Z,0
2017-07-06T02:37:05.735Z,0
2017-07-06T02:37:46.629Z,0
2017-07-06T02:38:27.510Z,0
2017-07-06T02:39:08.418Z,0
2017-07-06T02:39:49.304Z,0
2017-07-06T02:40:30.186Z,0
2017-07-06T02:41:11.074Z,0
2017-07-06T02:41:51.969Z,0
2017-07-06T02:42:32.861Z,0
2017-07-06T02:43:13.750Z,0
2017-07-06T02:43:54.637Z,0
2017-07-06T02:44:35.510Z,0
2017-07-06T02:45:16.407Z,0
2017-07-06T02:45:57.307Z,0
2017-07-06T02:46:38.189Z,0
2017-07-06T02:47:19.082Z,0
2017-07-06T02:47:59.988Z,0
2017-07-06T02:48:40.880Z,0
2017-07-06T02:49:21.780Z,0
2017-07-06T02:50:02.666Z,0
2017-07-06T02:50:43.561Z,0
2017-07-06T02:51:24.451Z,0
2017-07-06T02:52:05.340Z,0
2017-07-06T02:52:46.232Z,5
2017-07-06T02:53:27.136Z,5
2017-07-06T02:54:08.020Z,5
2017-07-06T02:54:48.898Z,5
2017-07-06T02:55:29.793Z,5
2017-07-06T02:56:10.697Z,5
2017-07-06T02:56:51.583Z,5
2017-07-06T02:57:32.477Z,5
2017-07-06T02:58:13.360Z,5
2017-07-06T02:58:54.262Z,5
2017-07-06T02:59:35.145Z,5
2017-07-06T03:00:16.045Z,5
2017-07-06T03:00:56.927Z,5
2017-07-06T03:01:37.816Z,5
2017-07-06T03:02:18.704Z,5
2017-07-06T03:02:59.592Z,5
2017-07-06T03:03:40.477Z,5
2017-07-06T03:04:21.371Z,5
2017-07-06T03:05:02.254Z,5
2017-07-06T03:05:43.142Z,5
2017-07-06T03:06:24.031Z,10
2017-07-06T03:07:04.935Z,10
2017-07-06T03:07:45.821Z,10
2017-07-06T03:08:26.705Z,10
2017-07-06T03:09:07.603Z,10
2017-07-06T03:09:48.529Z,10
2017-07-06T03:10:29.375Z,10
2017-07-06T03:11:10.268Z,10
2017-07-06T03:11:51.161Z,10
2017-07-06T03:12:32.055Z,10
2017-07-06T03:13:12.940Z,10
2017-07-06T03:13:53.838Z,15
2017-07-06T03:14:34.781Z,15
2017-07-06T03:15:15.621Z,15
2017-07-06T03:15:56.516Z,15
2017-07-06T03:16:37.407Z,15
2017-07-06T03:17:18.318Z,15
2017-07-06T03:17:59.206Z,15
2017-07-06T03:18:40.108Z,15
2017-07-06T03:19:21.020Z,15
2017-07-06T03:21:14.632Z,20
2017-07-06T03:21:55.528Z,20
2017-07-06T03:22:36.390Z,20
2017-07-06T03:23:17.300Z,20
2017-07-06T03:23:58.240Z,25
2017-07-06T03:24:39.122Z,25
2017-07-06T03:25:20.017Z,25
2017-07-06T03:26:00.901Z,25
2017-07-06T03:26:41.795Z,25
2017-07-06T03:27:22.694Z,25
2017-07-06T03:28:03.576Z,25
2017-07-06T03:28:44.474Z,25
2017-07-06T03:29:25.363Z,25
2017-07-06T03:30:06.250Z,25
2017-07-06T03:30:47.130Z,25
2017-07-06T03:31:28.050Z,25
2017-07-06T03:32:08.928Z,25
2017-07-06T03:32:49.800Z,25
2017-07-06T03:33:30.691Z,25
2017-07-06T03:34:11.568Z,25
2017-07-06T03:34:52.461Z,25
2017-07-06T03:35:33.331Z,25
2017-07-06T03:36:14.224Z,25
2017-07-06T03:36:55.107Z,25
2017-07-06T03:37:35.997Z,25
2017-07-06T03:38:16.972Z,25
2017-07-06T03:38:57.833Z,25
2017-07-06T03:39:38.770Z,30
2017-07-06T03:40:19.632Z,30
2017-07-06T03:41:00.522Z,30
2017-07-06T03:41:41.395Z,35
2017-07-06T03:42:22.284Z,35
2017-07-06T03:43:03.160Z,35
2017-07-06T03:43:44.065Z,35
2017-07-06T03:44:24.946Z,35
2017-07-06T03:45:05.834Z,30
2017-07-06T03:45:46.712Z,30
2017-07-06T03:46:27.590Z,30
2017-07-06T03:47:08.478Z,30
2017-07-06T03:47:49.416Z,30
2017-07-06T03:48:30.299Z,30
2017-07-06T03:49:11.195Z,35
2017-07-06T03:49:52.062Z,35
2017-07-06T03:50:32.946Z,35
2017-07-06T03:51:13.838Z,35
2017-07-06T03:51:54.722Z,40
2017-07-06T03:52:35.717Z,45
2017-07-06T03:53:16.659Z,50
2017-07-06T03:53:57.550Z,50
2017-07-06T03:54:38.445Z,50
2017-07-06T03:55:19.340Z,50
2017-07-06T03:56:00.217Z,45
2017-07-06T03:56:41.106Z,50
2017-07-06T03:57:22.008Z,50
2017-07-06T03:58:02.891Z,50
2017-07-06T03:58:43.777Z,50
2017-07-06T03:59:24.663Z,50
2017-07-06T04:00:05.549Z,55
2017-07-06T04:00:46.440Z,60
2017-07-06T04:01:27.333Z,65
2017-07-06T04:02:08.270Z,70
2017-07-06T04:02:49.172Z,75
2017-07-06T04:03:30.067Z,75
2017-07-06T04:04:11.015Z,75
2017-07-06T04:04:51.928Z,75
2017-07-06T04:05:32.833Z,75
2017-07-06T04:06:13.728Z,75
2017-07-06T04:06:54.609Z,80
2017-07-06T04:07:35.506Z,85
2017-07-06T04:08:16.424Z,85
2017-07-06T04:08:57.302Z,90
2017-07-06T04:09:38.187Z,95
2017-07-06T04:10:19.080Z,95
2017-07-06T04:10:59.964Z,95
2017-07-06T04:11:40.845Z,95
2017-07-06T04:12:21.731Z,95
2017-07-06T04:13:02.614Z,95
2017-07-06T04:13:43.518Z,95
2017-07-06T04:14:24.378Z,95
2017-07-06T04:15:05.278Z,100
2017-07-06T04:15:46.166Z,110
2017-07-06T04:16:27.054Z,110
2017-07-06T04:17:07.936Z,110
2017-07-06T04:17:48.830Z,110
2017-07-06T04:18:29.722Z,105
2017-07-06T04:19:10.608Z,100
2017-07-06T04:19:51.496Z,95
2017-07-06T04:20:32.393Z,90
2017-07-06T04:21:13.272Z,85
2017-07-06T04:21:54.148Z,80
2017-07-06T04:22:35.043Z,80
2017-07-06T04:23:15.927Z,75
2017-07-06T04:23:56.820Z,75
2017-07-06T04:24:37.707Z,70
2017-07-06T04:25:18.586Z,70
2017-07-06T04:25:59.476Z,65
2017-07-06T04:26:40.370Z,65
2017-07-06T04:27:21.265Z,65
2017-07-06T04:28:02.149Z,65
2017-07-06T04:28:43.039Z,70
2017-07-06T04:29:23.922Z,70
2017-07-06T04:30:04.816Z,75
2017-07-06T04:30:45.702Z,75
2017-07-06T04:31:26.592Z,75
2017-07-06T04:32:07.470Z,80
2017-07-06T04:32:48.359Z,80
2017-07-06T04:33:29.248Z,80
2017-07-06T04:34:10.124Z,80
2017-07-06T04:34:51.009Z,85
2017-07-06T04:35:31.909Z,85
2017-07-06T04:36:12.784Z,85
2017-07-06T04:36:53.672Z,90
2017-07-06T04:37:34.563Z,95
2017-07-06T04:38:15.447Z,95
2017-07-06T04:38:56.356Z,100
2017-07-06T04:39:37.243Z,100
2017-07-06T04:40:18.128Z,100
2017-07-06T04:40:59.011Z,100
2017-07-06T04:41:39.902Z,100
2017-07-06T04:42:20.793Z,100
2017-07-06T04:43:01.705Z,100
2017-07-06T04:43:42.594Z,100
2017-07-06T04:44:23.481Z,95
2017-07-06T04:45:04.374Z,95
2017-07-06T04:45:45.271Z,95
2017-07-06T04:46:26.160Z,90
2017-07-06T04:47:07.046Z,90
2017-07-06T04:47:47.947Z,90
2017-07-06T04:48:28.849Z,90
2017-07-06T04:49:09.760Z,90
2017-07-06T04:49:50.696Z,85
2017-07-06T04:50:31.532Z,90
2017-07-06T04:51:12.419Z,90
2017-07-06T04:51:53.319Z,90
2017-07-06T04:52:34.207Z,95
2017-07-06T04:53:15.104Z,95
2017-07-06T04:53:56.005Z,95
2017-07-06T04:54:36.881Z,95
2017-07-06T04:55:17.790Z,100
2017-07-06T04:55:59.503Z,100
2017-07-06T04:56:40.395Z,105
2017-07-06T04:57:21.285Z,110
2017-07-06T04:58:02.184Z,115
2017-07-06T04:58:43.094Z,120
2017-07-06T04:59:24.011Z,125
2017-07-06T05:00:04.907Z,130
2017-07-06T05:00:45.796Z,135
2017-07-06T05:01:26.717Z,135
2017-07-06T05:02:07.602Z,140
2017-07-06T05:02:48.492Z,145
2017-07-06T05:03:29.382Z,145
2017-07-06T05:04:10.278Z,145
2017-07-06T05:04:51.151Z,145
2017-07-06T05:05:32.044Z,140
2017-07-06T05:06:12.934Z,140
2017-07-06T05:06:53.826Z,135
2017-07-06T05:07:34.709Z,135
2017-07-06T05:08:15.598Z,140
2017-07-06T05:08:56.493Z,140
2017-07-06T05:09:37.382Z,145
2017-07-06T05:10:18.266Z,145
2017-07-06T05:10:59.153Z,145
2017-07-06T05:11:40.040Z,150
2017-07-06T05:12:20.925Z,150
2017-07-06T05:13:01.815Z,160
2017-07-06T05:13:42.712Z,160
2017-07-06T05:14:23.601Z,160
2017-07-06T05:15:04.494Z,160
2017-07-06T05:15:45.391Z,165
2017-07-06T05:16:26.275Z,170
2017-07-06T05:17:07.166Z,170
2017-07-06T05:17:48.059Z,170
2017-07-06T05:18:28.956Z,175
2017-07-06T05:19:09.858Z,175
2017-07-06T05:19:50.920Z,175
2017-07-06T05:20:31.810Z,170
2017-07-06T05:22:45.983Z,160
2017-07-06T05:23:26.879Z,160
2017-07-06T05:24:07.771Z,160
2017-07-06T05:24:48.697Z,165
2017-07-06T05:25:29.615Z,170
2017-07-06T05:26:10.504Z,175
2017-07-06T05:26:51.403Z,180
2017-07-06T05:27:32.299Z,185
2017-07-06T05:28:13.198Z,185
2017-07-06T05:28:54.071Z,180
2017-07-06T05:29:34.953Z,180
2017-07-06T05:30:15.847Z,165
2017-07-06T05:30:56.732Z,160
2017-07-06T05:31:37.630Z,155
2017-07-06T05:32:18.519Z,150
2017-07-06T05:32:59.412Z,145
2017-07-06T05:33:40.340Z,145
2017-07-06T05:34:21.185Z,150
2017-07-06T05:35:02.073Z,155
2017-07-06T05:35:42.962Z,155
2017-07-06T05:36:23.859Z,160
2017-07-06T05:37:04.732Z,165
2017-07-06T05:37:45.626Z,175
2017-07-06T05:38:26.517Z,185
2017-07-06T05:40:45.790Z,210
2017-07-06T05:41:26.680Z,205
2017-07-06T05:43:41.802Z,215
2017-07-06T05:44:22.694Z,225
2017-07-06T05:45:03.593Z,235
2017-07-06T05:45:44.472Z,240
2017-07-06T05:46:25.349Z,250
2017-07-06T05:47:06.256Z,260
2017-07-06T05:47:47.190Z,265
2017-07-06T05:48:28.047Z,270
2017-07-06T05:49:08.945Z,270
2017-07-06T05:49:49.817Z,275
2017-07-06T05:50:30.703Z,280
2017-07-06T05:51:11.596Z,290
2017-07-06T05:51:52.486Z,280
2017-07-06T05:52:33.370Z,310
2017-07-06T05:53:14.258Z,275
2017-07-06T05:53:55.146Z,260
2017-07-06T05:54:36.040Z,315
2017-07-06T05:55:16.909Z,255
2017-07-06T05:55:57.787Z,255
2017-07-06T05:56:38.680Z,265
2017-07-06T05:57:19.576Z,250
2017-07-06T05:58:00.446Z,325
2017-07-06T05:58:41.331Z,235
2017-07-06T05:59:22.220Z,235
2017-07-06T06:00:03.115Z,235
2017-07-06T06:00:44.009Z,235
2017-07-06T06:01:24.895Z,240
2017-07-06T06:02:05.782Z,250
2017-07-06T06:02:46.657Z,305
2017-07-06T06:03:27.561Z,245
2017-07-06T06:04:08.469Z,260
2017-07-06T06:04:49.361Z,230
2017-07-06T06:05:30.260Z,215
2017-07-06T06:06:11.164Z,200
2017-07-06T06:06:52.062Z,195
2017-07-06T06:07:32.960Z,190
2017-07-06T06:08:13.855Z,185
2017-07-06T06:08:54.763Z,180
2017-07-06T06:09:35.635Z,180
2017-07-06T06:10:16.536Z,180
2017-07-06T06:10:57.437Z,180
2017-07-06T06:11:38.334Z,185
2017-07-06T06:12:19.234Z,185
2017-07-06T06:13:00.128Z,180
2017-07-06T06:13:41.024Z,180
2017-07-06T06:14:21.924Z,180
2017-07-06T06:15:02.806Z,180
2017-07-06T06:15:43.706Z,180
2017-07-06T06:16:24.609Z,185
2017-07-06T06:17:05.502Z,185
2017-07-06T06:17:46.401Z,190
2017-07-06T06:18:27.297Z,195
2017-07-06T06:19:08.189Z,205
2017-07-06T06:19:49.096Z,220
2017-07-06T06:20:29.972Z,230
2017-07-06T06:21:10.861Z,235
2017-07-06T06:21:51.740Z,240
2017-07-06T06:22:32.627Z,250
2017-07-06T06:23:13.517Z,260
2017-07-06T06:23:54.413Z,265
2017-07-06T06:24:35.319Z,265
2017-07-06T06:25:16.212Z,265
2017-07-06T06:25:57.104Z,260
2017-07-06T06:26:38.000Z,265
2017-07-06T06:27:18.895Z,260
2017-07-06T06:27:59.788Z,260
2017-07-06T06:28:40.669Z,260
2017-07-06T06:29:21.570Z,260
2017-07-06T06:30:02.464Z,270
2017-07-06T06:30:43.362Z,270
2017-07-06T06:31:24.244Z,270
2017-07-06T06:32:05.142Z,275
2017-07-06T06:32:46.049Z,295
2017-07-06T06:33:26.943Z,290
2017-07-06T06:34:07.858Z,280
2017-07-06T06:34:48.751Z,300
2017-07-06T06:35:29.647Z,595
2017-07-06T06:36:10.540Z,580
2017-07-06T06:36:51.437Z,585
2017-07-06T06:37:32.345Z,590
2017-07-06T06:38:13.223Z,575
2017-07-06T06:38:54.115Z,550
2017-07-06T06:39:35.004Z,410
2017-07-06T06:40:15.893Z,325
2017-07-06T06:40:56.785Z,300
2017-07-06T06:41:37.685Z,295
2017-07-06T06:42:18.571Z,285
2017-07-06T06:42:59.477Z,285
2017-07-06T06:43:40.366Z,280
2017-07-06T06:44:21.273Z,270
2017-07-06T06:45:02.170Z,265
2017-07-06T06:45:43.067Z,270
2017-07-06T06:46:23.947Z,280
2017-07-06T06:47:04.834Z,290
2017-07-06T06:47:45.727Z,315
2017-07-06T06:48:26.624Z,340
2017-07-06T06:49:07.526Z,370
2017-07-06T06:49:48.422Z,390
2017-07-06T06:50:29.325Z,420
2017-07-06T06:51:10.256Z,425
2017-07-06T06:51:51.139Z,420
2017-07-06T06:52:32.040Z,1355
2017-07-06T06:53:12.919Z,1080
2017-07-06T06:53:53.811Z,615
2017-07-06T06:54:34.703Z,430
2017-07-06T06:55:15.592Z,400
2017-07-06T06:55:56.493Z,410
2017-07-06T06:56:37.393Z,470
2017-07-06T06:57:18.287Z,845
2017-07-06T06:57:59.194Z,1865
2017-07-06T06:58:40.133Z,1925
2017-07-06T06:59:20.979Z,1920
2017-07-06T07:00:01.863Z,1770
2017-07-06T07:00:42.764Z,1955
2017-07-06T07:01:23.668Z,2190
2017-07-06T07:02:04.571Z,2120
2017-07-06T07:02:45.470Z,2425
2017-07-06T07:03:26.385Z,2385
2017-07-06T07:04:07.279Z,2335
2017-07-06T07:04:48.178Z,2165
2017-07-06T07:05:29.069Z,2235
2017-07-06T07:06:09.975Z,2140
2017-07-06T07:06:50.875Z,2155
2017-07-06T07:07:31.783Z,2110
2017-07-06T07:08:12.675Z,2065
2017-07-06T07:08:53.569Z,2070
2017-07-06T07:09:34.461Z,2120
2017-07-06T07:10:15.420Z,2045
2017-07-06T07:10:56.314Z,1950
2017-07-06T07:11:37.219Z,1855
2017-07-06T07:12:18.118Z,1780
2017-07-06T07:12:59.030Z,1845
2017-07-06T07:13:39.931Z,1875
2017-07-06T07:14:20.830Z,1725
2017-07-06T07:15:01.717Z,1580
2017-07-06T07:15:42.625Z,1525
2017-07-06T07:16:23.532Z,1480
2017-07-06T07:17:04.437Z,1475
2017-07-06T07:17:45.344Z,1440
2017-07-06T07:18:26.283Z,1725
2017-07-06T07:19:07.188Z,1745
2017-07-06T07:19:48.099Z,1760
2017-07-06T07:20:29.010Z,1665
2017-07-06T07:21:09.912Z,1530
2017-07-06T07:21:50.818Z,1375
2017-07-06T07:22:31.723Z,1315
2017-07-06T07:23:12.624Z,1355
2017-07-06T07:23:53.529Z,1330
2017-07-06T07:24:34.439Z,1355
2017-07-06T07:25:15.347Z,1410
2017-07-06T07:25:56.230Z,1600
2017-07-06T07:26:37.154Z,1855
2017-07-06T07:27:18.061Z,2000
2017-07-06T07:27:58.960Z,1945
2017-07-06T07:28:39.866Z,1955
2017-07-06T07:29:20.759Z,1440
2017-07-06T07:30:01.664Z,1150
2017-07-06T07:30:42.580Z,1445
2017-07-06T07:31:23.486Z,1015
2017-07-06T07:32:04.395Z,780
2017-07-06T07:32:45.322Z,680
2017-07-06T07:33:26.227Z,625
2017-07-06T07:34:07.137Z,585
2017-07-06T07:34:48.041Z,580
2017-07-06T07:35:28.947Z,595
2017-07-06T07:36:09.832Z,615
2017-07-06T07:36:50.737Z,585
2017-07-06T07:39:19.914Z,755
2017-07-06T07:40:00.815Z,550
2017-07-06T07:40:41.720Z,540
2017-07-06T07:41:22.628Z,555
2017-07-06T07:42:03.533Z,580
2017-07-06T07:42:44.440Z,595
2017-07-06T07:43:25.353Z,735
2017-07-06T07:44:06.255Z,1300
2017-07-06T07:44:47.146Z,1205
2017-07-06T07:45:28.050Z,1860
2017-07-06T07:46:08.954Z,2115
2017-07-06T07:46:49.861Z,2075
2017-07-06T07:47:30.759Z,1055
2017-07-06T07:48:11.666Z,1155
2017-07-06T07:48:52.585Z,1245
2017-07-06T07:49:33.552Z,630
2017-07-06T07:50:14.460Z,720
2017-07-06T07:50:55.361Z,665
2017-07-06T07:51:36.285Z,665
2017-07-06T07:52:17.211Z,720
2017-07-06T07:52:58.120Z,720
2017-07-06T07:53:39.015Z,680
2017-07-06T07:54:19.918Z,660
2017-07-06T07:55:00.790Z,590
2017-07-06T07:55:41.696Z,580
2017-07-06T07:56:22.593Z,575
2017-07-06T07:57:03.500Z,565
2017-07-06T07:57:44.402Z,555
2017-07-06T07:58:25.299Z,540
2017-07-06T07:59:06.183Z,515
2017-07-06T07:59:47.090Z,490
2017-07-06T08:00:27.996Z,475
2017-07-06T08:01:08.896Z,475
2017-07-06T08:01:49.772Z,480
2017-07-06T08:02:30.653Z,515
2017-07-06T08:03:11.566Z,520
2017-07-06T08:03:52.478Z,530
2017-07-06T08:04:33.362Z,525
2017-07-06T08:05:14.260Z,510
2017-07-06T08:05:55.161Z,500
2017-07-06T08:06:36.064Z,510
2017-07-06T08:07:16.962Z,520
2017-07-06T08:07:57.865Z,545
2017-07-06T08:08:38.752Z,565
2017-07-06T08:09:19.656Z,560
2017-07-06T08:10:00.545Z,550
2017-07-06T08:10:41.454Z,560
2017-07-06T08:11:22.350Z,565
2017-07-06T08:12:03.247Z,600
2017-07-06T08:12:44.150Z,630
2017-07-06T08:13:25.047Z,665
2017-07-06T08:14:05.946Z,690
2017-07-06T08:14:46.854Z,680
2017-07-06T08:15:27.757Z,675
2017-07-06T08:16:08.678Z,640
2017-07-06T08:16:49.585Z,660
2017-07-06T08:17:30.478Z,690
2017-07-06T08:18:11.375Z,670
2017-07-06T08:18:52.259Z,655
2017-07-06T08:19:33.145Z,705
2017-07-06T08:20:14.051Z,680
2017-07-06T08:20:54.938Z,645
2017-07-06T08:21:35.832Z,655
2017-07-06T08:22:16.731Z,730
2017-07-06T08:22:57.628Z,720
2017-07-06T08:23:38.531Z,715
2017-07-06T08:24:19.429Z,730
2017-07-06T08:25:00.333Z,1990
2017-07-06T08:25:41.232Z,1070
2017-07-06T08:26:22.123Z,975
2017-07-06T08:27:03.026Z,2200
2017-07-06T08:27:43.920Z,1230
2017-07-06T08:28:24.827Z,865
2017-07-06T08:29:05.728Z,745
2017-07-06T08:29:46.622Z,825
2017-07-06T08:30:27.524Z,825
2017-07-06T08:31:08.414Z,800
2017-07-06T08:31:49.318Z,840
2017-07-06T08:32:30.228Z,870
2017-07-06T08:33:11.135Z,1025
2017-07-06T08:33:52.039Z,1335
2017-07-06T08:34:32.934Z,1310
2017-07-06T08:35:13.845Z,1350
2017-07-06T08:35:54.747Z,1790
2017-07-06T08:36:35.647Z,2195
2017-07-06T08:37:16.542Z,2415
2017-07-06T08:37:57.456Z,2595
2017-07-06T08:38:38.354Z,2625
2017-07-06T08:39:19.263Z,2235
2017-07-06T08:40:00.159Z,2490
2017-07-06T08:40:41.072Z,2665
2017-07-06T08:41:21.964Z,2675
2017-07-06T08:42:02.860Z,2565
2017-07-06T08:42:43.790Z,2105
2017-07-06T08:43:24.661Z,2460
2017-07-06T08:44:05.566Z,2005
2017-07-06T08:44:46.480Z,1880
2017-07-06T08:45:27.372Z,1705
2017-07-06T08:46:08.264Z,1565
2017-07-06T08:46:49.242Z,1690
2017-07-06T08:47:30.106Z,1800
2017-07-06T08:48:11.006Z,1755
2017-07-06T08:48:51.919Z,2010
2017-07-06T08:49:32.819Z,2340
2017-07-06T08:50:13.731Z,2490
2017-07-06T08:50:54.637Z,2475
2017-07-06T08:51:35.554Z,2615
2017-07-06T08:52:16.456Z,2580
2017-07-06T08:52:57.380Z,2380
2017-07-06T08:53:38.290Z,2335
2017-07-06T08:54:19.198Z,2125
2017-07-06T08:55:00.104Z,1950
2017-07-06T08:55:41.007Z,1905
2017-07-06T08:56:21.914Z,1940
2017-07-06T08:57:02.822Z,2105
2017-07-06T08:57:43.722Z,2220
2017-07-06T08:58:24.631Z,2205
2017-07-06T08:59:05.537Z,2195
2017-07-06T08:59:46.449Z,2215
2017-07-06T09:00:27.354Z,2300
2017-07-06T09:01:08.269Z,2350
2017-07-06T09:01:49.171Z,2385
2017-07-06T09:02:30.080Z,2415
2017-07-06T09:03:10.981Z,2410
2017-07-06T09:03:51.890Z,2485
2017-07-06T09:04:32.787Z,2635
2017-07-06T09:05:13.712Z,2830
2017-07-06T09:05:54.614Z,2965
2017-07-06T09:06:35.532Z,2970
2017-07-06T09:07:16.444Z,2930
2017-07-06T09:07:57.349Z,2940
2017-07-06T09:08:38.264Z,2755
2017-07-06T09:09:19.201Z,2710
2017-07-06T09:10:00.099Z,2630
2017-07-06T09:10:41.021Z,2510
2017-07-06T09:11:21.924Z,2470
2017-07-06T09:12:02.831Z,2625
2017-07-06T09:12:43.782Z,2695
2017-07-06T09:13:24.668Z,2725
2017-07-06T09:14:05.583Z,2910
2017-07-06T09:14:46.488Z,2925
2017-07-06T09:15:27.468Z,2645
2017-07-06T09:16:08.320Z,2750
2017-07-06T09:16:49.235Z,3045
2017-07-06T09:17:30.146Z,3275
2017-07-06T09:18:11.067Z,3300
2017-07-06T09:18:51.975Z,3335
2017-07-06T09:19:32.904Z,3310
2017-07-06T09:20:13.818Z,3310
2017-07-06T09:20:54.738Z,3255
2017-07-06T09:21:35.653Z,2970
2017-07-06T09:22:16.567Z,2490
2017-07-06T09:22:57.504Z,810
2017-07-06T09:23:38.387Z,695
2017-07-06T09:24:19.299Z,635
2017-07-06T09:25:00.217Z,610
2017-07-06T09:25:41.132Z,610
2017-07-06T09:26:22.058Z,620
2017-07-06T09:27:02.959Z,620
2017-07-06T09:27:43.891Z,615
2017-07-06T09:28:24.791Z,640
2017-07-06T09:29:05.711Z,770
2017-07-06T09:29:46.629Z,1800
2017-07-06T09:30:27.535Z,1330
2017-07-06T09:31:08.451Z,1520
2017-07-06T09:31:49.364Z,1495
2017-07-06T09:32:30.271Z,2420
2017-07-06T09:33:11.181Z,2460
2017-07-06T09:33:52.085Z,1125
2017-07-06T09:34:32.986Z,1560
2017-07-06T09:35:13.894Z,1700
2017-07-06T09:35:54.803Z,2400
2017-07-06T09:36:35.713Z,2500
2017-07-06T09:37:16.631Z,2640
2017-07-06T09:37:57.535Z,2600
2017-07-06T09:38:38.443Z,1150
2017-07-06T09:39:19.347Z,1760
2017-07-06T09:40:00.263Z,2170
2017-07-06T09:40:41.167Z,2025
2017-07-06T09:41:22.083Z,1095
2017-07-06T09:42:02.992Z,2285
2017-07-06T09:42:43.898Z,2605
2017-07-06T09:43:24.809Z,2515
2017-07-06T09:44:05.706Z,2540
2017-07-06T09:44:46.609Z,2480
2017-07-06T09:45:27.536Z,2475
2017-07-06T09:46:08.428Z,2465
2017-07-06T09:46:49.332Z,2410
2017-07-06T09:47:30.276Z,2540
2017-07-06T09:48:11.179Z,2495
2017-07-06T09:48:52.088Z,2365